Back to Top

My Weather Underground Personal Weather Station Historical Data with Graphs...

Delerius Weather Station Historical Data
 
Daily Summary for May 07, 2021 Units:  English    Metric   Both
Daily Weekly Monthly Yearly
  Current: High: Low: Average:
Temperature: 37.9 °F 37.9 °F 34.5 °F 36 °F
Dew Point: 36.3 °F 36.3 °F 32.7 °F 34.3 °F
Humidity: 94% 94% 92% 93%
Wind Speed: 5.6mph 5.6mph 0.4mph 3.4mph
Wind Gust: 8mph 9mph - -
WindWNW - - WNW
Pressure: 29.9 in 29.9 in 29.8 in -
Precipitation: 0 in      
 
 
Tabular Data for May 07, 2021
Time Temperature Dew Point Pressure Wind Wind Speed Wind Gust Humidity Rainfall Rate (Hourly) solar
00:04 37.4 °F 35.6 °F 29.8 in WNW 2 mph 6 mph 93% 0 in 0 W/m2
00:09 37.2 °F 35.4 °F 29.8 in WNW 2 mph 6 mph 92.7% 0 in 0 W/m2
00:14 37 °F 35.1 °F 29.8 in WNW 1 mph 4 mph 92% 0 in 0 W/m2
00:19 37 °F 34.9 °F 29.8 in WNW 0.4 mph 4 mph 92% 0 in 0 W/m2
00:24 37 °F 34.9 °F 29.8 in WNW 0.4 mph 3 mph 92% 0 in 0 W/m2
00:34 36.9 °F 34.9 °F 29.8 in WNW 2.2 mph 5 mph 92.8% 0 in 0 W/m2
00:39 36.9 °F 35.1 °F 29.8 in WNW 3.6 mph 6 mph 93% 0 in 0 W/m2
00:44 36.9 °F 35.1 °F 29.8 in WNW 1.8 mph 7 mph 93% 0 in 0 W/m2
00:49 36.9 °F 35.1 °F 29.8 in West 5.4 mph 9 mph 93% 0 in 0 W/m2
00:54 37 °F 35.2 °F 29.8 in West 3.7 mph 7 mph 93% 0 in 0 W/m2
00:59 36.9 °F 35.1 °F 29.8 in WNW 3.7 mph 7 mph 93% 0 in 0 W/m2
01:04 36.9 °F 35.1 °F 29.8 in WNW 2.1 mph 6 mph 93% 0 in 0 W/m2
01:09 36.9 °F 34.9 °F 29.8 in WNW 2.2 mph 6 mph 93% 0 in 0 W/m2
01:14 36.7 °F 34.9 °F 29.8 in WNW 2.3 mph 5 mph 93% 0 in 0 W/m2
01:19 36.7 °F 34.9 °F 29.8 in WNW 1.6 mph 4 mph 93% 0 in 0 W/m2
01:24 36.7 °F 34.7 °F 29.8 in WNW 1.8 mph 4 mph 93% 0 in 0 W/m2
01:29 36.5 °F 34.7 °F 29.8 in WNW 1.2 mph 4 mph 93% 0 in 0 W/m2
01:34 36.7 °F 34.9 °F 29.8 in WNW 2 mph 5 mph 93% 0 in 0 W/m2
01:39 36.7 °F 34.9 °F 29.8 in West 2.6 mph 5 mph 93% 0 in 0 W/m2
01:44 36.5 °F 34.5 °F 29.8 in West 4.7 mph 6 mph 92.4% 0 in 0 W/m2
01:49 36.3 °F 34.5 °F 29.8 in WSW 3 mph 6 mph 92.9% 0 in 0 W/m2
01:54 36.5 °F 34.7 °F 29.8 in WSW 4 mph 6 mph 93% 0 in 0 W/m2
01:59 36.3 °F 34.5 °F 29.8 in WSW 4.7 mph 7 mph 93% 0 in 0 W/m2
02:04 36.1 °F 34.3 °F 29.8 in WSW 3.5 mph 5 mph 93% 0 in 0 W/m2
04:09 35.2 °F 33.4 °F 29.9 in WNW 4 mph 6 mph 93% 0 in 0 W/m2
04:14 35.1 °F 33.3 °F 29.9 in WNW 3.7 mph 6 mph 93% 0 in 0 W/m2
04:19 34.9 °F 33.1 °F 29.9 in WNW 3.7 mph 6 mph 93% 0 in 0 W/m2
04:24 34.7 °F 32.9 °F 29.9 in NW 4.9 mph 7 mph 93% 0 in 0 W/m2
04:29 34.5 °F 32.7 °F 29.9 in NW 4.8 mph 7 mph 93% 0 in 0 W/m2
04:34 34.7 °F 33.1 °F 29.9 in NW 5 mph 8 mph 93.5% 0 in 0 W/m2
04:39 34.9 °F 33.3 °F 29.9 in WNW 5 mph 7 mph 94% 0 in 0 W/m2
04:44 34.7 °F 33.3 °F 29.9 in WNW 4.2 mph 7 mph 94% 0 in 0 W/m2
04:49 34.9 °F 33.3 °F 29.9 in WNW 1.9 mph 5 mph 94% 0 in 0 W/m2
04:54 35.1 °F 33.4 °F 29.9 in WNW 3.5 mph 6 mph 94% 0 in 0 W/m2
04:59 35.1 °F 33.4 °F 29.9 in West 3.4 mph 5 mph 94% 0 in 0 W/m2
05:04 34.9 °F 33.3 °F 29.9 in West 3.2 mph 5 mph 94% 0 in 0 W/m2
05:09 34.7 °F 33.3 °F 29.9 in WNW 4.5 mph 6 mph 94% 0 in 0 W/m2
05:14 34.7 °F 33.3 °F 29.9 in West 5.3 mph 6 mph 94% 0 in 5 W/m2
05:19 34.7 °F 33.3 °F 29.9 in West 3.1 mph 6 mph 94% 0 in 7 W/m2
05:24 34.9 °F 33.3 °F 29.9 in West 2.4 mph 6 mph 94% 0 in 9 W/m2
05:29 35.1 °F 33.4 °F 29.9 in West 3.5 mph 6 mph 94% 0 in 11 W/m2
05:34 35.1 °F 33.4 °F 29.9 in West 5 mph 7 mph 94% 0 in 12 W/m2
05:39 35.1 °F 33.4 °F 29.9 in West 4 mph 7 mph 94% 0 in 14 W/m2
05:44 35.1 °F 33.4 °F 29.9 in West 2.7 mph 5 mph 94% 0 in 16 W/m2
05:49 35.1 °F 33.4 °F 29.9 in West 3.8 mph 5 mph 94% 0 in 18 W/m2
05:54 35.2 °F 33.6 °F 29.9 in West 4 mph 5 mph 94% 0 in 19 W/m2
05:59 35.2 °F 33.6 °F 29.9 in WNW 4.5 mph 6 mph 94% 0 in 33 W/m2
06:04 35.1 °F 33.4 °F 29.9 in WNW 4.3 mph 6 mph 94% 0 in 58 W/m2
06:09 35.2 °F 33.6 °F 29.9 in West 2.1 mph 5 mph 94% 0 in 25 W/m2
06:14 35.2 °F 33.8 °F 29.9 in West 2.3 mph 4 mph 94% 0 in 84 W/m2
06:19 35.4 °F 34 °F 29.9 in West 3.4 mph 6 mph 94% 0 in 95 W/m2
06:24 36 °F 34.3 °F 29.9 in West 2.8 mph 6 mph 94% 0 in 104 W/m2
06:29 36.1 °F 34.7 °F 29.9 in West 3.4 mph 6 mph 94% 0 in 116 W/m2
06:34 36.5 °F 34.9 °F 29.9 in West 3.9 mph 6 mph 94% 0 in 123 W/m2
06:39 36.7 °F 35.1 °F 29.9 in West 3.8 mph 6 mph 94% 0 in 144 W/m2
06:44 36.9 °F 35.4 °F 29.9 in West 4 mph 7 mph 94% 0 in 156 W/m2
06:49 37.2 °F 35.8 °F 29.9 in West 5.3 mph 7 mph 94% 0 in 162 W/m2
06:54 37.6 °F 36 °F 29.9 in WNW 4.1 mph 7 mph 94% 0 in 181 W/m2
06:59 37.8 °F 36.3 °F 29.9 in WNW 3.9 mph 8 mph 94% 0 in 185 W/m2
07:04 37.9 °F 36.3 °F 29.9 in WNW 5.1 mph 8 mph 94% 0 in 185 W/m2
07:09 37.9 °F 36.3 °F 29.9 in WNW 5.6 mph 8 mph 94% 0 in 183 W/m2
North Lincolnshire Weather
Compliments of Weather Underground - 2 mb

Data updates at regular intervals.